Time;durP1;ratioP1;P1;durP2;ratioP2;P2;SDS_P1;SDS_P2;PMS_P1;PMS_P2;Temp;Humidity;BMP_temperature;BMP_pressure;BME280_temperature;BME280_humidity;BME280_pressure;Samples;Min_cycle;Max_cycle;Signal;HPM_P1;HPM_P2
2021/03/13 00:01:33;;;;;;;197.53;124.10;;;153.90;2252.80;;;;;;4807594;29;20046;-91
2021/03/13 00:04:08;;;;;;;;;;;;;;;;;;;;;
2021/03/13 00:06:47;;;;;;;223.70;134.93;;;154.00;2252.80;;;;;;4790670;30;20033;-91
2021/03/13 00:09:16;;;;;;;199.73;122.63;;;154.00;2252.80;;;;;;4795220;30;20038;-92
2021/03/13 00:11:51;;;;;;;;;;;;;;;;;;;;;
2021/03/13 00:14:18;;;;;;;143.83;88.03;;;154.00;2252.80;;;;;;4795081;30;20118;-91
2021/03/13 00:16:50;;;;;;;135.03;80.10;;;154.00;2252.80;;;;;;4793408;29;20085;-90
2021/03/13 00:19:25;;;;;;;135.00;85.00;;;154.00;2252.80;;;;;;4789761;29;20032;-91
2021/03/13 00:21:51;;;;;;;202.73;116.87;;;154.00;2252.80;;;;;;4775557;30;20035;-91
2021/03/13 00:24:17;;;;;;;184.13;112.70;;;154.00;2252.80;;;;;;4792369;29;20434;-91
2021/03/13 00:26:46;;;;;;;274.57;156.23;;;153.90;2252.80;;;;;;4798473;30;20027;-90
2021/03/13 00:32:28;;;;;;;192.40;116.70;;;128.90;2252.80;;;;;;4798785;30;20039;-91
2021/03/13 00:34:56;;;;;;;180.23;101.77;;;153.70;2252.80;;;;;;4796314;29;20504;-91
2021/03/13 00:37:25;;;;;;;160.40;97.20;;;153.60;2252.80;;;;;;4797687;30;20027;-90
2021/03/13 00:39:54;;;;;;;152.57;93.23;;;153.70;2252.80;;;;;;4781238;30;20034;-91
2021/03/13 00:42:20;;;;;;;135.03;80.83;;;153.80;2252.80;;;;;;4797839;30;20492;-91
2021/03/13 00:45:12;;;;;;;131.37;77.60;;;153.90;2252.80;;;;;;4783651;29;20027;-92
2021/03/13 00:47:44;;;;;;;124.80;74.47;;;153.90;2252.80;;;;;;4798797;30;20482;-91
2021/03/13 00:50:11;;;;;;;115.88;71.30;;;154.00;2252.80;;;;;;4799109;29;20031;-92
2021/03/13 00:52:40;;;;;;;139.63;82.67;;;154.00;2252.80;;;;;;4795924;30;20043;-92
2021/03/13 00:55:08;;;;;;;136.33;81.73;;;154.00;2252.80;;;;;;4789740;30;20058;-91
2021/03/13 00:57:49;;;;;;;139.50;85.27;;;154.00;2252.80;;;;;;4791130;30;20110;-91
2021/03/13 01:00:18;;;;;;;157.63;94.43;;;154.10;2252.80;;;;;;4771789;30;20052;-91
2021/03/13 01:02:44;;;;;;;150.57;92.80;;;154.00;2252.80;;;;;;4756572;30;20039;-92
2021/03/13 01:05:14;;;;;;;154.63;93.17;;;154.00;2252.80;;;;;;4755943;30;20047;-92
2021/03/13 01:07:54;;;;;;;169.33;107.30;;;154.20;2252.80;;;;;;4756042;30;20051;-92
2021/03/13 01:10:47;;;;;;;167.63;99.40;;;154.20;2252.80;;;;;;4755875;30;20043;-92
2021/03/13 01:13:14;;;;;;;161.35;99.65;;;154.20;2252.80;;;;;;4792738;24;20066;-91
2021/03/13 01:15:52;;;;;;;154.77;92.00;;;154.20;2252.80;;;;;;4789056;29;20039;-92
2021/03/13 01:18:36;;;;;;;141.67;84.53;;;154.00;2252.80;;;;;;4792518;30;20031;-91
2021/03/13 01:21:17;;;;;;;144.27;89.23;;;154.10;2252.80;;;;;;4792193;30;20067;-91
2021/03/13 01:23:49;;;;;;;155.97;92.20;;;154.10;2252.80;;;;;;4783894;24;20062;-91
2021/03/13 01:26:17;;;;;;;147.80;86.93;;;154.10;2252.80;;;;;;4786967;29;20035;-91
2021/03/13 01:28:49;;;;;;;148.37;91.80;;;154.10;2252.80;;;;;;4802582;29;20298;-92
2021/03/13 01:31:15;;;;;;;158.18;93.60;;;154.00;2252.80;;;;;;4802051;29;20039;-92
2021/03/13 01:33:55;;;;;;;169.53;103.73;;;153.90;2252.80;;;;;;4788420;29;20136;-91
2021/03/13 01:39:19;;;;;;;125.83;76.50;;;153.90;2252.80;;;;;;4919553;24;20578;-92
2021/03/13 01:41:45;;;;;;;89.23;57.20;;;153.80;2252.80;;;;;;4688793;30;20042;-91
2021/03/13 01:47:03;;;;;;;87.47;52.20;;;153.70;2252.80;;;;;;4791891;29;20058;-92
2021/03/13 01:49:41;;;;;;;86.00;55.23;;;153.70;2252.80;;;;;;4791448;29;20067;-91
2021/03/13 01:52:26;;;;;;;83.47;55.37;;;153.80;2252.80;;;;;;4791485;30;20039;-92
2021/03/13 01:54:52;;;;;;;95.03;57.23;;;153.80;2252.80;;;;;;4792070;30;20099;-91
2021/03/13 02:00:54;;;;;;;93.23;60.70;;;153.80;2252.80;;;;;;4792505;29;20031;-91
2021/03/13 02:03:25;;;;;;;89.10;57.80;;;153.80;2252.80;;;;;;4792217;30;20042;-91
2021/03/13 02:05:54;;;;;;;87.10;56.33;;;153.90;2252.80;;;;;;4777068;30;20032;-92
2021/03/13 02:08:53;;;;;;;87.20;54.97;;;154.00;2252.80;;;;;;4791634;30;20069;-92
2021/03/13 02:15:28;;;;;;;85.00;53.67;;;153.60;2252.80;;;;;;4747295;29;20046;-92
2021/03/13 02:18:31;;;;;;;83.53;53.55;;;128.90;2252.80;;;;;;4791511;30;20028;-92
2021/03/13 02:25:34;;;;;;;91.70;56.80;;;153.70;2252.80;;;;;;4703099;30;20056;-91
2021/03/13 02:28:23;;;;;;;89.10;53.27;;;153.60;2252.80;;;;;;4769637;29;20041;-91
2021/03/13 02:31:10;;;;;;;84.40;54.07;;;153.60;2252.80;;;;;;4790815;29;20027;-91
2021/03/13 02:33:53;;;;;;;83.93;54.83;;;153.70;2252.80;;;;;;4775315;29;20110;-92
2021/03/13 02:36:20;;;;;;;93.22;56.85;;;153.70;2252.80;;;;;;4790799;30;20085;-91
2021/03/13 02:39:06;;;;;;;105.17;64.37;;;154.30;2252.80;;;;;;4790867;30;20035;-92
2021/03/13 02:41:41;;;;;;;106.93;66.93;;;153.80;2252.80;;;;;;4791051;30;20043;-91
2021/03/13 02:44:20;;;;;;;103.87;63.37;;;153.80;2252.80;;;;;;4790196;30;20032;-91
2021/03/13 02:47:25;;;;;;;102.70;63.43;;;153.90;2252.80;;;;;;4778586;30;20504;-91
2021/03/13 02:49:56;;;;;;;105.17;63.73;;;154.00;2252.80;;;;;;4776409;30;20223;-92
2021/03/13 02:52:23;;;;;;;111.50;66.93;;;154.00;2252.80;;;;;;4775858;30;20027;-92
2021/03/13 02:58:25;;;;;;;95.57;63.13;;;154.00;2252.80;;;;;;4791800;30;20043;-91
2021/03/13 03:01:40;;;;;;;98.47;58.55;;;154.20;2252.80;;;;;;4777203;30;20031;-92
2021/03/13 03:04:09;;;;;;;96.73;60.80;;;154.30;2252.80;;;;;;4782120;24;20135;-91
2021/03/13 03:10:33;;;;;;;116.37;70.37;;;154.30;2252.80;;;;;;4753986;30;20025;-91
2021/03/13 03:17:06;;;;;;;97.93;62.40;;;154.20;2252.80;;;;;;4790278;24;20208;-91
2021/03/13 03:23:23;;;;;;;84.03;52.47;;;154.20;2252.80;;;;;;4784686;30;20128;-91
2021/03/13 03:26:17;;;;;;;94.83;55.83;;;154.20;2252.80;;;;;;4766297;30;20036;-91
2021/03/13 03:29:01;;;;;;;97.00;56.57;;;154.30;2252.80;;;;;;4766349;30;20043;-92
2021/03/13 03:34:03;;;;;;;90.67;52.40;;;154.30;2252.80;;;;;;4820390;24;19925;-90
2021/03/13 03:36:35;;;;;;;114.33;69.00;;;154.20;2252.80;;;;;;4788617;30;20047;-90
2021/03/13 03:39:01;;;;;;;111.97;69.10;;;154.00;2252.80;;;;;;4787011;30;20032;-92
2021/03/13 03:41:53;;;;;;;113.60;71.60;;;154.00;2252.80;;;;;;4786237;30;20730;-91
2021/03/13 03:44:27;;;;;;;137.60;74.53;;;154.10;2252.80;;;;;;4761074;30;20031;-91
2021/03/13 03:47:33;;;;;;;122.33;76.10;;;154.00;2252.80;;;;;;4772721;30;20127;-92
2021/03/13 03:50:05;;;;;;;126.13;75.47;;;154.00;2252.80;;;;;;4774457;30;20401;-92
2021/03/13 03:53:18;;;;;;;122.80;76.40;;;154.10;2252.80;;;;;;4774659;30;20085;-92
2021/03/13 03:55:47;;;;;;;115.60;73.03;;;154.30;2252.80;;;;;;4774272;30;20661;-92
2021/03/13 03:58:36;;;;;;;109.43;73.87;;;154.30;2252.80;;;;;;4772307;30;20028;-92
2021/03/13 04:25:14;;;;;;;119.97;75.27;;;179.20;2252.80;;;;;;4812089;29;20088;-93
2021/03/13 05:28:45;;;;;;;95.27;55.17;;;179.70;2252.80;;;;;;4703821;30;20038;-92
2021/03/13 05:31:25;;;;;;;75.20;47.80;;;179.70;2252.80;;;;;;4702562;30;20037;-92
2021/03/13 06:13:14;;;;;;;36.83;20.17;;;179.60;2252.80;;;;;;4802505;30;20500;-91
2021/03/13 06:15:41;;;;;;;20.77;13.30;;;179.60;2252.80;;;;;;4800203;30;20047;-90
2021/03/13 06:18:07;;;;;;;17.47;11.20;;;179.50;2252.80;;;;;;4793180;29;20057;-90
2021/03/13 06:20:38;;;;;;;11.40;8.27;;;179.40;2252.80;;;;;;4776576;30;20497;-91
2021/03/13 06:23:07;;;;;;;31.97;18.20;;;179.50;2252.80;;;;;;4791662;30;20131;-89
2021/03/13 06:26:16;;;;;;;27.90;17.17;;;179.50;2252.80;;;;;;4792000;30;20081;-93
2021/03/13 06:28:57;;;;;;;13.83;9.63;;;179.60;2252.80;;;;;;4791393;30;20485;-90
2021/03/13 06:31:46;;;;;;;15.80;10.50;;;179.70;2252.80;;;;;;4792456;30;20069;-89
2021/03/13 06:34:25;;;;;;;18.57;10.33;;;179.60;2252.80;;;;;;4780232;29;20053;-91
2021/03/13 06:37:35;;;;;;;18.50;11.17;;;179.50;2252.80;;;;;;4800607;30;20035;-89
2021/03/13 06:42:53;;;;;;;17.47;11.10;;;179.50;2252.80;;;;;;4791490;30;20051;-92
2021/03/13 06:45:19;;;;;;;23.17;15.00;;;179.20;2252.80;;;;;;4781326;30;20024;-88
2021/03/13 06:47:45;;;;;;;22.67;14.77;;;179.60;2252.80;;;;;;4778624;30;20040;-88
2021/03/13 06:50:19;;;;;;;18.63;11.97;;;179.80;2252.80;;;;;;4789644;29;20038;-89
2021/03/13 06:53:20;;;;;;;19.83;11.70;;;179.50;2252.80;;;;;;4776746;30;20035;-96
2021/03/13 06:55:45;;;;;;;16.77;11.57;;;179.50;2252.80;;;;;;4705398;30;20045;-86
2021/03/13 06:58:17;;;;;;;14.30;8.90;;;179.50;2252.80;;;;;;4695400;30;20077;-86
2021/03/13 07:00:43;;;;;;;22.90;15.75;;;179.60;2252.80;;;;;;4696292;30;20042;-86
2021/03/13 07:03:20;;;;;;;18.58;9.82;;;179.60;2252.80;;;;;;4701468;30;20488;-84
2021/03/13 07:05:52;;;;;;;49.67;26.27;;;179.80;2252.80;;;;;;4703659;30;20041;-84
2021/03/13 07:08:35;;;;;;;24.42;17.70;;;179.80;2252.80;;;;;;4701630;30;20109;-90
2021/03/13 07:11:03;;;;;;;41.25;24.92;;;180.10;2252.80;;;;;;4687523;30;20495;-87
2021/03/13 07:13:40;;;;;;;100.80;53.67;;;205.70;2252.80;;;;;;4700191;30;20029;-87
2021/03/13 07:16:23;;;;;;;38.08;27.33;;;230.50;2252.80;;;;;;4701194;30;20058;-84
2021/03/13 07:18:49;;;;;;;37.55;24.63;;;205.40;2252.80;;;;;;4687877;30;20096;-84
2021/03/13 07:21:17;;;;;;;47.58;26.40;;;205.20;2252.80;;;;;;4701000;30;20154;-85
2021/03/13 07:23:44;;;;;;;43.22;25.73;;;205.00;2252.80;;;;;;4701434;30;20042;-87
2021/03/13 07:26:10;;;;;;;59.25;35.97;;;205.10;2252.80;;;;;;4702907;30;20033;-88
2021/03/13 07:28:42;;;;;;;163.02;100.72;;;205.70;2252.80;;;;;;4704804;30;20107;-86
2021/03/13 07:31:17;;;;;;;39.67;26.30;;;230.70;2252.80;;;;;;4772657;30;20085;-87
2021/03/13 07:33:46;;;;;;;60.75;41.42;;;231.10;2252.80;;;;;;4772224;30;20039;-87
2021/03/13 07:36:16;;;;;;;72.57;40.92;;;231.10;2252.80;;;;;;4772215;30;20056;-87
2021/03/13 07:38:44;;;;;;;54.05;33.30;;;230.60;2252.80;;;;;;4771758;30;20036;-86
2021/03/13 07:41:14;;;;;;;69.38;46.78;;;230.40;2252.80;;;;;;4772742;30;20486;-86
2021/03/13 07:43:42;;;;;;;68.88;46.40;;;205.30;2252.80;;;;;;4772469;30;20119;-84
2021/03/13 07:46:11;;;;;;;130.57;74.18;;;205.20;2252.80;;;;;;4772572;30;20047;-85
2021/03/13 07:48:38;;;;;;;72.55;45.60;;;205.20;2252.80;;;;;;4771406;30;20031;-86
2021/03/13 07:51:05;;;;;;;40.47;24.42;;;205.20;2252.80;;;;;;4771171;30;20044;-86
2021/03/13 07:53:35;;;;;;;26.08;17.35;;;205.40;2252.80;;;;;;4771768;30;20028;-87
2021/03/13 07:56:04;;;;;;;22.83;15.70;;;205.40;2252.80;;;;;;4772352;30;20039;-92
2021/03/13 07:58:48;;;;;;;29.88;18.80;;;205.40;2252.80;;;;;;4772969;30;20032;-88
2021/03/13 08:01:14;;;;;;;30.88;20.58;;;205.30;2252.80;;;;;;4772494;30;20039;-88
2021/03/13 08:03:58;;;;;;;40.47;26.02;;;205.20;2252.80;;;;;;4757793;30;20438;-91
2021/03/13 08:06:24;;;;;;;51.03;33.10;;;205.00;2252.80;;;;;;4776928;30;20069;-88
2021/03/13 08:08:52;;;;;;;38.03;24.73;;;205.00;2252.80;;;;;;4760185;30;20036;-88
2021/03/13 08:11:20;;;;;;;47.38;28.95;;;204.90;2252.80;;;;;;4772845;30;20040;-88
2021/03/13 08:13:57;;;;;;;26.95;18.77;;;205.00;2252.80;;;;;;4771661;30;20071;-88
2021/03/13 08:16:37;;;;;;;66.47;39.88;;;205.20;2252.80;;;;;;4772310;30;20039;-87
2021/03/13 08:19:03;;;;;;;180.98;97.72;;;205.20;2252.80;;;;;;4772286;30;20537;-87
2021/03/13 08:21:35;;;;;;;27.85;17.48;;;205.30;2252.80;;;;;;4771673;30;20051;-87
2021/03/13 08:24:02;;;;;;;30.45;18.95;;;205.40;2252.80;;;;;;4772146;30;20261;-86
2021/03/13 08:26:34;;;;;;;26.55;19.50;;;205.40;2252.80;;;;;;4770540;30;20039;-86
2021/03/13 08:29:07;;;;;;;44.15;29.27;;;205.50;2252.80;;;;;;4771092;30;20027;-88
2021/03/13 08:31:36;;;;;;;22.38;14.55;;;205.60;2252.80;;;;;;4771322;30;20039;-87
2021/03/13 08:34:05;;;;;;;31.95;19.52;;;205.70;2252.80;;;;;;4771481;30;20040;-88
2021/03/13 08:36:51;;;;;;;40.95;26.17;;;230.40;2252.80;;;;;;4770829;30;20044;-86
2021/03/13 08:39:22;;;;;;;28.95;19.00;;;230.40;2252.80;;;;;;4786619;30;20032;-88
2021/03/13 08:41:49;;;;;;;31.95;20.45;;;230.60;2252.80;;;;;;4771390;30;20056;-88
2021/03/13 08:44:20;;;;;;;23.17;16.52;;;230.60;2252.80;;;;;;4771184;30;20027;-87
2021/03/13 08:46:58;;;;;;;25.40;15.40;;;230.70;2252.80;;;;;;4772156;30;20036;-87
2021/03/13 08:49:54;;;;;;;22.08;12.43;;;230.50;2252.80;;;;;;4771144;30;20032;-91
2021/03/13 08:55:33;;;;;;;19.80;14.32;;;230.80;2252.80;;;;;;4779893;30;20051;-92
2021/03/13 08:58:49;;;;;;;25.65;16.45;;;230.80;2252.80;;;;;;4783041;30;20047;-89
2021/03/13 09:03:59;;;;;;;19.35;12.98;;;231.10;2252.80;;;;;;4790749;24;20066;-91
2021/03/13 09:06:25;;;;;;;26.35;17.10;;;231.10;2252.80;;;;;;4793034;30;20051;-91
2021/03/13 09:08:51;;;;;;;24.77;15.43;;;231.20;2252.80;;;;;;4781684;30;20059;-90
2021/03/13 09:11:41;;;;;;;31.20;18.77;;;256.00;2252.80;;;;;;4799818;30;20110;-90
2021/03/13 09:14:58;;;;;;;47.05;30.90;;;256.00;2201.60;;;;;;4779662;30;20104;-91
2021/03/13 09:18:19;;;;;;;;;;;;;;;;;;;;;
2021/03/13 09:20:47;;;;;;;20.73;13.48;;;256.20;2201.60;;;;;;4777228;30;20111;-87
2021/03/13 09:23:32;;;;;;;8.05;5.22;;;256.40;2176.00;;;;;;4819100;24;20051;-89
2021/03/13 09:26:13;;;;;;;7.50;5.32;;;256.30;2124.80;;;;;;4775475;30;20467;-90
2021/03/13 09:28:49;;;;;;;8.15;5.10;;;256.40;2124.80;;;;;;4758331;30;20031;-91
2021/03/13 09:31:20;;;;;;;48.05;27.15;;;256.70;1996.80;;;;;;4771590;30;20078;-90
2021/03/13 09:33:49;;;;;;;31.80;15.32;;;281.60;2073.60;;;;;;4756542;30;20111;-90
2021/03/13 09:36:16;;;;;;;27.50;15.30;;;281.70;1945.60;;;;;;4757483;30;20056;-91
2021/03/13 09:39:04;;;;;;;11.23;6.70;;;282.20;2099.20;;;;;;4774823;30;20066;-91
2021/03/13 09:41:31;;;;;;;20.63;11.90;;;307.30;2048.00;;;;;;4776854;30;20042;-90
2021/03/13 09:43:59;;;;;;;8.13;5.88;;;307.40;1971.20;;;;;;4776545;30;20115;-91
2021/03/13 09:49:05;;;;;;;14.20;8.18;;;307.50;1945.60;;;;;;4887477;24;20059;-91
2021/03/13 09:51:34;;;;;;;11.07;7.18;;;307.70;1996.80;;;;;;4778072;30;20043;-91
2021/03/13 09:54:01;;;;;;;23.80;14.63;;;307.90;1971.20;;;;;;4777396;30;20041;-89
2021/03/13 09:56:29;;;;;;;7.93;5.30;;;308.10;1868.80;;;;;;4777230;30;20069;-88
2021/03/13 09:59:16;;;;;;;5.13;2.90;;;333.00;1920.00;;;;;;4776454;30;20035;-91
2021/03/13 10:02:03;;;;;;;5.78;4.03;;;333.30;1868.80;;;;;;4697469;30;20096;-92
2021/03/13 10:08:22;;;;;;;13.82;8.55;;;333.70;1894.40;;;;;;4659501;30;20070;-91
2021/03/13 10:10:52;;;;;;;11.65;8.45;;;333.40;1894.40;;;;;;4641366;30;20047;-89
2021/03/13 10:13:33;;;;;;;8.40;4.57;;;333.40;1920.00;;;;;;4647003;30;20114;-89
2021/03/13 10:16:17;;;;;;;6.97;5.18;;;333.60;1894.40;;;;;;4646375;30;20058;-91
2021/03/13 10:18:44;;;;;;;27.83;15.35;;;358.50;1868.80;;;;;;4666550;30;20078;-89
2021/03/13 10:21:10;;;;;;;10.73;6.55;;;358.50;1792.00;;;;;;4637458;30;20055;-89
2021/03/13 10:23:38;;;;;;;8.10;5.25;;;333.60;1817.60;;;;;;4636690;30;20035;-89
2021/03/13 10:26:30;;;;;;;8.40;5.20;;;333.60;1740.80;;;;;;4637307;30;20549;-89
2021/03/13 10:28:56;;;;;;;9.75;5.03;;;358.40;1817.60;;;;;;4636939;30;20059;-90
2021/03/13 10:31:28;;;;;;;14.20;9.35;;;358.60;1817.60;;;;;;4643496;30;20102;-90
2021/03/13 10:34:35;;;;;;;7.88;5.15;;;358.70;1843.20;;;;;;4737239;30;20090;-93
2021/03/13 10:37:24;;;;;;;10.60;6.47;;;333.50;1792.00;;;;;;4723341;30;20044;-94
2021/03/13 10:40:17;;;;;;;7.53;5.32;;;332.90;1817.60;;;;;;4724167;30;20039;-94
2021/03/13 10:43:26;;;;;;;14.40;9.70;;;332.80;1894.40;;;;;;4792702;30;20039;-92
2021/03/13 10:51:07;;;;;;;17.13;10.48;;;358.70;1894.40;;;;;;4842679;24;20060;-95
2021/03/13 10:54:25;;;;;;;14.10;9.65;;;359.20;1817.60;;;;;;4778933;30;20036;-96
2021/03/13 10:57:05;;;;;;;31.98;8.73;;;384.20;1766.40;;;;;;4775884;30;20404;-92
2021/03/13 11:00:15;;;;;;;11.18;6.35;;;384.80;1843.20;;;;;;4778784;30;20118;-95
2021/03/13 11:06:53;;;;;;;6.18;4.43;;;359.30;1638.40;;;;;;4765637;24;20065;-93
2021/03/13 11:09:27;;;;;;;7.80;2.78;;;359.20;1689.60;;;;;;4777205;30;20122;-91
2021/03/13 11:11:53;;;;;;;5.32;2.80;;;359.30;1689.60;;;;;;4791322;30;20042;-84
2021/03/13 11:14:19;;;;;;;8.60;5.53;;;384.20;1664.00;;;;;;4775257;30;20427;-84
2021/03/13 11:16:45;;;;;;;10.18;6.57;;;384.60;1689.60;;;;;;4775065;30;20054;-85
2021/03/13 11:19:17;;;;;;;6.47;2.92;;;384.50;1638.40;;;;;;4775102;29;20046;-89
2021/03/13 11:21:44;;;;;;;3.92;2.30;;;384.90;1612.80;;;;;;4780023;30;20041;-86
2021/03/13 11:24:12;;;;;;;5.70;3.42;;;384.60;1638.40;;;;;;4780967;30;20075;-85
2021/03/13 11:26:38;;;;;;;6.43;3.67;;;384.90;1689.60;;;;;;4784626;30;20028;-87
2021/03/13 11:29:07;;;;;;;3.30;2.38;;;409.60;1664.00;;;;;;4796436;30;20038;-85
2021/03/13 11:31:34;;;;;;;11.70;4.47;;;409.70;1689.60;;;;;;4780294;30;20400;-86
2021/03/13 11:33:59;;;;;;;6.72;4.18;;;409.70;1715.20;;;;;;4783483;29;20042;-85
2021/03/13 11:36:25;;;;;;;4.78;3.20;;;410.20;1689.60;;;;;;4778275;30;20055;-91
2021/03/13 11:38:57;;;;;;;8.65;3.90;;;410.40;1612.80;;;;;;4779409;30;20397;-84
2021/03/13 11:41:35;;;;;;;8.30;4.50;;;435.30;1587.20;;;;;;4781385;30;20042;-86
2021/03/13 11:44:01;;;;;;;8.80;4.70;;;435.60;1587.20;;;;;;4779875;30;20035;-86
2021/03/13 11:46:27;;;;;;;7.55;6.05;;;410.50;1536.00;;;;;;4778897;30;20041;-85
2021/03/13 11:48:52;;;;;;;5.45;3.00;;;435.30;1484.80;;;;;;4780411;30;20470;-85
2021/03/13 11:51:41;;;;;;;6.40;3.67;;;409.80;1561.60;;;;;;4790581;29;20041;-87
2021/03/13 11:54:08;;;;;;;7.68;4.50;;;410.00;1510.40;;;;;;4796354;29;20035;-84
2021/03/13 11:56:34;;;;;;;8.70;4.90;;;410.30;1561.60;;;;;;4798839;29;20054;-84
2021/03/13 11:59:06;;;;;;;4.40;3.42;;;435.40;1484.80;;;;;;4802087;29;20039;-86
2021/03/13 12:01:32;;;;;;;11.23;6.20;;;435.50;1510.40;;;;;;4797540;29;20425;-93
2021/03/13 12:03:58;;;;;;;8.05;4.90;;;435.80;1484.80;;;;;;4797342;29;20035;-91
2021/03/13 12:06:24;;;;;;;15.93;9.15;;;436.00;1484.80;;;;;;4795072;29;20058;-89
2021/03/13 12:09:00;;;;;;;9.13;5.47;;;410.40;1510.40;;;;;;4793939;29;20053;-95
2021/03/13 12:11:26;;;;;;;9.98;7.05;;;409.90;1536.00;;;;;;4793018;29;20068;-89
2021/03/13 12:13:58;;;;;;;12.02;8.73;;;410.50;1536.00;;;;;;4796643;29;20061;-93
2021/03/13 12:16:24;;;;;;;8.13;6.55;;;436.00;1510.40;;;;;;4854733;24;20038;-92
2021/03/13 12:19:30;;;;;;;15.80;10.45;;;435.60;1510.40;;;;;;4783447;29;20057;-92
2021/03/13 12:21:57;;;;;;;16.48;8.77;;;435.70;1510.40;;;;;;4818347;24;20046;-93
2021/03/13 12:24:36;;;;;;;18.10;11.65;;;435.30;1536.00;;;;;;4794314;29;20035;-91
2021/03/13 12:34:36;;;;;;;11.18;8.50;;;410.00;1587.20;;;;;;4824959;24;20059;-91
2021/03/13 12:42:57;;;;;;;10.60;7.53;;;410.50;1612.80;;;;;;4803853;24;20119;-91
2021/03/13 12:45:23;;;;;;;10.57;8.10;;;435.70;1612.80;;;;;;4776888;30;20122;-88
2021/03/13 12:47:48;;;;;;;11.50;7.68;;;435.80;1587.20;;;;;;4791310;30;20097;-88
2021/03/13 12:50:25;;;;;;;22.23;16.40;;;435.90;1510.40;;;;;;4791183;29;20046;-89
2021/03/13 12:52:51;;;;;;;20.48;14.20;;;435.70;1587.20;;;;;;4792060;24;20063;-90
2021/03/13 12:55:53;;;;;;;14.07;10.73;;;435.40;1561.60;;;;;;4783470;24;20159;-89
2021/03/13 12:58:19;;;;;;;29.35;22.90;;;435.40;1561.60;;;;;;4774027;30;20192;-90
2021/03/13 13:00:46;;;;;;;17.25;12.77;;;435.20;1587.20;;;;;;4774527;30;20063;-89
2021/03/13 13:03:21;;;;;;;13.75;8.45;;;410.40;1612.80;;;;;;4772420;30;20114;-89
2021/03/13 13:05:47;;;;;;;20.13;13.88;;;435.40;1561.60;;;;;;4791274;24;20054;-90
2021/03/13 13:08:13;;;;;;;37.55;26.38;;;410.30;1612.80;;;;;;4793020;29;20035;-92
2021/03/13 13:10:43;;;;;;;32.15;19.50;;;410.20;1689.60;;;;;;4794808;29;20069;-88
2021/03/13 13:13:22;;;;;;;20.95;13.48;;;410.30;1689.60;;;;;;4794197;29;20070;-87
2021/03/13 13:15:59;;;;;;;26.02;13.75;;;410.20;1638.40;;;;;;4791743;29;20035;-88
2021/03/13 13:18:28;;;;;;;20.70;12.07;;;410.20;1664.00;;;;;;4794529;29;20070;-89
2021/03/13 13:21:06;;;;;;;;;;;;;;;;;;;;;
2021/03/13 13:28:39;;;;;;;16.70;9.60;;;409.70;1740.80;;;;;;4811683;29;20055;-91
2021/03/13 13:31:20;;;;;;;40.75;27.45;;;409.60;1740.80;;;;;;4801397;29;20502;-91
2021/03/13 13:33:48;;;;;;;30.48;18.88;;;409.80;1715.20;;;;;;4795301;29;20042;-90
2021/03/13 13:38:59;;;;;;;40.10;30.08;;;410.40;1689.60;;;;;;4805370;24;20051;-91
2021/03/13 13:41:31;;;;;;;17.27;15.45;;;410.50;1612.80;;;;;;4790425;30;20038;-89
2021/03/13 13:44:01;;;;;;;19.27;14.00;;;410.40;1612.80;;;;;;4790419;30;20035;-87
2021/03/13 13:46:28;;;;;;;18.95;13.63;;;410.40;1612.80;;;;;;4789426;30;20042;-89
2021/03/13 13:48:55;;;;;;;15.48;9.98;;;410.50;1664.00;;;;;;4790289;29;20028;-89
2021/03/13 13:51:32;;;;;;;22.02;16.48;;;435.50;1612.80;;;;;;4789537;30;20068;-90
2021/03/13 13:53:58;;;;;;;16.13;11.32;;;435.70;1612.80;;;;;;4794179;29;20043;-92
2021/03/13 13:56:40;;;;;;;15.05;10.40;;;435.80;1561.60;;;;;;4782556;30;20088;-89
2021/03/13 13:59:05;;;;;;;19.02;10.85;;;435.80;1561.60;;;;;;4796937;30;20089;-87
2021/03/13 14:01:34;;;;;;;15.40;10.95;;;435.70;1587.20;;;;;;4795880;30;20057;-86
2021/03/13 14:04:01;;;;;;;14.32;8.23;;;436.00;1587.20;;;;;;4790866;30;20449;-83
2021/03/13 14:06:30;;;;;;;33.60;30.08;;;435.90;1587.20;;;;;;4801436;29;20111;-86
2021/03/13 14:09:09;;;;;;;10.63;7.70;;;435.90;1612.80;;;;;;4802353;30;20043;-87
2021/03/13 14:11:36;;;;;;;13.75;8.93;;;435.90;1612.80;;;;;;4799356;30;20039;-85
2021/03/13 14:14:02;;;;;;;28.13;16.75;;;435.90;1638.40;;;;;;4786416;30;20034;-85
2021/03/13 14:16:31;;;;;;;23.80;12.45;;;435.60;1587.20;;;;;;4795180;30;20043;-86
2021/03/13 14:19:02;;;;;;;18.15;11.63;;;435.40;1612.80;;;;;;4788127;29;20031;-87
2021/03/13 14:21:31;;;;;;;76.67;52.50;;;410.50;1638.40;;;;;;4788343;30;20043;-90
2021/03/13 14:23:57;;;;;;;26.27;20.52;;;410.00;1638.40;;;;;;4797214;29;20039;-86
2021/03/13 14:26:24;;;;;;;20.50;11.13;;;384.80;1664.00;;;;;;4799487;30;20035;-86
2021/03/13 14:28:51;;;;;;;26.60;14.43;;;384.60;1689.60;;;;;;4782216;30;20558;-87
2021/03/13 14:31:19;;;;;;;22.60;15.18;;;384.60;1715.20;;;;;;4796027;30;20035;-90
2021/03/13 14:33:48;;;;;;;24.45;15.88;;;384.50;1715.20;;;;;;4800172;24;20486;-89
2021/03/13 14:36:32;;;;;;;;;;;;;;;;;;;;;
2021/03/13 14:39:20;;;;;;;45.03;26.65;;;384.80;1689.60;;;;;;4938821;24;20148;-91
2021/03/13 14:41:48;;;;;;;74.88;49.17;;;410.00;1715.20;;;;;;4766715;24;20423;-90
2021/03/13 14:44:30;;;;;;;33.35;19.40;;;410.20;1689.60;;;;;;4794638;29;20070;-90
2021/03/13 15:00:03;;;;;;;21.85;15.77;;;435.50;1638.40;;;;;;4813493;24;20059;-89
2021/03/13 15:02:43;;;;;;;22.23;15.68;;;435.30;1664.00;;;;;;4777227;30;20039;-92
2021/03/13 15:08:16;;;;;;;26.98;16.55;;;410.50;1612.80;;;;;;4798885;24;20062;-91
2021/03/13 15:10:43;;;;;;;22.08;15.02;;;435.20;1689.60;;;;;;4804916;30;20034;-89
2021/03/13 15:13:09;;;;;;;20.50;15.10;;;435.50;1612.80;;;;;;4787598;30;20057;-88
2021/03/13 15:15:35;;;;;;;26.38;19.15;;;410.50;1612.80;;;;;;4789582;30;20031;-89
2021/03/13 15:18:01;;;;;;;34.92;22.50;;;410.00;1664.00;;;;;;4789675;30;20042;-86
2021/03/13 15:20:27;;;;;;;31.00;21.83;;;409.80;1689.60;;;;;;4778817;30;20032;-87
2021/03/13 15:22:53;;;;;;;45.08;30.73;;;410.00;1689.60;;;;;;4776778;29;20038;-89
2021/03/13 15:25:19;;;;;;;38.13;25.88;;;410.00;1689.60;;;;;;4777250;30;20380;-88
2021/03/13 15:27:54;;;;;;;35.90;24.55;;;409.80;1689.60;;;;;;4777365;30;20042;-88
2021/03/13 15:30:22;;;;;;;32.72;20.50;;;409.70;1715.20;;;;;;4776449;30;20034;-88
2021/03/13 15:32:48;;;;;;;24.48;15.75;;;409.70;1715.20;;;;;;4776016;30;20467;-88
2021/03/13 15:35:30;;;;;;;32.10;23.33;;;409.90;1689.60;;;;;;4775326;30;20054;-87
2021/03/13 15:37:56;;;;;;;27.02;18.27;;;410.00;1689.60;;;;;;4781322;30;20070;-89
2021/03/13 15:40:38;;;;;;;23.33;16.17;;;384.80;1689.60;;;;;;4778857;30;20126;-88
2021/03/13 15:43:06;;;;;;;15.25;10.95;;;409.80;1689.60;;;;;;4781984;30;20027;-90
2021/03/13 15:45:33;;;;;;;29.20;19.70;;;409.60;1689.60;;;;;;4776820;29;20035;-89
2021/03/13 15:48:11;;;;;;;30.83;20.35;;;384.80;1715.20;;;;;;4778166;30;20093;-89
2021/03/13 15:51:19;;;;;;;26.50;17.88;;;409.60;1715.20;;;;;;4779748;30;20095;-91
2021/03/13 15:53:45;;;;;;;21.42;15.57;;;384.80;1715.20;;;;;;4781043;30;20102;-90
2021/03/13 15:56:11;;;;;;;26.27;16.25;;;384.80;1689.60;;;;;;4834432;24;20087;-89
2021/03/13 15:58:49;;;;;;;26.23;17.02;;;384.90;1715.20;;;;;;4757525;30;20032;-89
2021/03/13 16:06:35;;;;;;;30.40;20.35;;;384.80;1715.20;;;;;;4839416;24;20109;-90
2021/03/13 16:09:18;;;;;;;40.28;26.58;;;384.80;1689.60;;;;;;4757161;30;20032;-87
2021/03/13 16:11:45;;;;;;;34.67;23.02;;;384.80;1689.60;;;;;;4773071;30;20036;-90
2021/03/13 16:14:17;;;;;;;38.15;25.70;;;384.90;1715.20;;;;;;4758544;30;20036;-91
2021/03/13 16:16:43;;;;;;;41.28;25.77;;;384.60;1740.80;;;;;;4757810;30;20044;-87
2021/03/13 16:19:09;;;;;;;41.40;26.23;;;384.50;1740.80;;;;;;4756736;30;20113;-89
2021/03/13 16:21:35;;;;;;;34.58;23.23;;;384.50;1740.80;;;;;;4757613;30;20040;-86
2021/03/13 16:24:02;;;;;;;35.30;24.33;;;384.40;1740.80;;;;;;4773653;30;20031;-89
2021/03/13 16:26:34;;;;;;;48.03;29.95;;;384.20;1766.40;;;;;;4758604;30;20085;-90
2021/03/13 16:28:59;;;;;;;52.70;34.03;;;384.20;1766.40;;;;;;4761263;30;20036;-90
2021/03/13 16:31:25;;;;;;;52.28;34.15;;;384.10;1792.00;;;;;;4761763;30;20069;-89